createdAt,value
2022-10-22T00:00:11.634Z,35.83
2022-10-22T00:02:58.893Z,53.47
2022-10-22T00:05:25.830Z,29.48
2022-10-22T00:07:53.008Z,35.85
2022-10-22T00:10:19.938Z,24.45
2022-10-22T00:12:47.153Z,30.08
2022-10-22T00:15:13.984Z,27.42
2022-10-22T00:17:41.379Z,30.58
2022-10-22T00:20:09.042Z,27.00
2022-10-22T00:22:36.093Z,28.38
2022-10-22T00:25:03.149Z,29.52
2022-10-22T00:27:30.282Z,30.63
2022-10-22T00:29:57.589Z,30.88
2022-10-22T00:32:24.638Z,36.88
2022-10-22T00:34:51.560Z,29.58
2022-10-22T00:37:18.657Z,40.17
2022-10-22T00:39:45.522Z,44.92
2022-10-22T00:42:20.058Z,33.30
2022-10-22T00:45:05.411Z,44.38
2022-10-22T00:47:36.962Z,33.97
2022-10-22T00:50:06.345Z,28.75
2022-10-22T00:52:33.783Z,23.35
2022-10-22T00:55:01.246Z,25.15
2022-10-22T00:57:28.865Z,29.42
2022-10-22T00:59:56.331Z,29.90
2022-10-22T01:02:24.182Z,27.73
2022-10-22T01:04:51.098Z,28.80
2022-10-22T01:07:20.793Z,28.58
2022-10-22T01:10:13.642Z,28.65
2022-10-22T01:12:52.375Z,23.00
2022-10-22T01:15:39.493Z,28.27
2022-10-22T01:18:16.628Z,36.05
2022-10-22T01:21:12.342Z,29.50
2022-10-22T01:23:42.199Z,28.23
2022-10-22T01:26:14.870Z,27.65
2022-10-22T01:28:58.689Z,27.73
2022-10-22T01:31:30.744Z,40.22
2022-10-22T01:33:59.892Z,37.28
2022-10-22T01:36:29.632Z,56.28
2022-10-22T01:38:57.199Z,50.65
2022-10-22T01:41:24.112Z,94.32
2022-10-22T01:43:51.203Z,65.85
2022-10-22T01:46:20.821Z,82.38
2022-10-22T01:48:56.530Z,90.40
2022-10-22T01:51:50.175Z,104.55
2022-10-22T01:54:26.441Z,41.28
2022-10-22T01:56:56.238Z,50.90
2022-10-22T01:59:29.737Z,35.28
2022-10-22T02:01:59.468Z,31.83
2022-10-22T02:04:47.368Z,27.50
2022-10-22T02:07:16.028Z,27.92
2022-10-22T02:09:43.679Z,27.48
2022-10-22T02:12:10.968Z,48.97
2022-10-22T02:14:40.171Z,68.65
2022-10-22T02:17:09.153Z,41.17
2022-10-22T02:19:57.347Z,120.75
2022-10-22T02:22:25.266Z,86.35
2022-10-22T02:24:52.307Z,102.75
2022-10-22T02:27:30.546Z,51.42
2022-10-22T02:30:00.596Z,140.05
2022-10-22T02:32:33.230Z,177.68
2022-10-22T02:35:01.446Z,94.60
2022-10-22T02:37:28.653Z,82.10
2022-10-22T02:39:56.475Z,184.65
2022-10-22T02:42:25.375Z,73.50
2022-10-22T02:44:52.757Z,72.82
2022-10-22T02:47:20.165Z,72.90
2022-10-22T02:49:47.335Z,65.25
2022-10-22T02:52:14.577Z,32.45
2022-10-22T02:54:41.766Z,32.88
2022-10-22T02:57:08.808Z,36.42
2022-10-22T02:59:36.022Z,39.03
2022-10-22T03:02:02.824Z,29.40
2022-10-22T03:04:30.142Z,31.13
2022-10-22T03:06:57.342Z,32.97
2022-10-22T03:09:24.972Z,35.88
2022-10-22T03:11:52.247Z,27.77
2022-10-22T03:14:19.458Z,33.67
2022-10-22T03:16:46.524Z,61.35
2022-10-22T03:19:13.632Z,68.82
2022-10-22T03:21:51.499Z,79.10
2022-10-22T03:24:22.488Z,118.70
2022-10-22T03:26:51.606Z,93.88
2022-10-22T03:29:19.683Z,93.38
2022-10-22T03:31:46.585Z,61.67
2022-10-22T03:34:13.759Z,114.47
2022-10-22T03:36:41.009Z,77.10
2022-10-22T03:39:08.224Z,96.10
2022-10-22T03:41:35.702Z,61.28
2022-10-22T03:44:03.694Z,87.00
2022-10-22T03:46:30.533Z,39.75
2022-10-22T03:48:57.635Z,39.95
2022-10-22T03:51:27.513Z,39.90
2022-10-22T03:53:54.935Z,45.97
2022-10-22T03:56:21.914Z,52.42
2022-10-22T03:58:49.224Z,28.77
2022-10-22T04:01:16.099Z,82.13
2022-10-22T04:03:43.265Z,56.25
2022-10-22T04:06:13.069Z,62.97
2022-10-22T04:08:42.034Z,71.15
2022-10-22T04:11:09.939Z,37.08
2022-10-22T04:13:37.120Z,29.98
2022-10-22T04:16:12.427Z,29.58
2022-10-22T04:18:40.590Z,26.05
2022-10-22T04:21:09.198Z,21.38
2022-10-22T04:23:36.659Z,30.70
2022-10-22T04:26:06.431Z,21.65
2022-10-22T04:28:34.734Z,25.17
2022-10-22T04:31:07.954Z,23.10
2022-10-22T04:33:35.010Z,28.67
2022-10-22T04:36:09.718Z,31.75
2022-10-22T04:38:36.813Z,31.88
2022-10-22T04:41:21.768Z,34.78
2022-10-22T04:43:49.233Z,23.63
2022-10-22T04:46:18.437Z,50.33
2022-10-22T04:48:46.294Z,27.75
2022-10-22T04:51:16.775Z,20.33
2022-10-22T04:53:44.641Z,25.75
2022-10-22T04:56:23.060Z,105.93
2022-10-22T04:58:52.231Z,39.58
2022-10-22T05:01:42.725Z,43.08
2022-10-22T05:04:13.197Z,18.83
2022-10-22T05:06:40.116Z,20.98
2022-10-22T05:09:13.636Z,18.80
2022-10-22T05:11:43.273Z,18.08
2022-10-22T05:14:10.566Z,13.50
2022-10-22T05:16:38.328Z,17.70
2022-10-22T05:19:06.169Z,19.75
2022-10-22T05:21:33.393Z,17.35
2022-10-22T05:24:01.018Z,17.45
2022-10-22T05:26:29.025Z,21.75
2022-10-22T05:28:56.254Z,82.88
2022-10-22T05:31:23.403Z,58.42
2022-10-22T05:33:50.748Z,29.00
2022-10-22T05:36:23.614Z,20.48
2022-10-22T05:38:50.814Z,16.65
2022-10-22T05:41:20.163Z,18.63
2022-10-22T05:43:47.886Z,18.52
2022-10-22T05:46:22.534Z,29.23
2022-10-22T05:48:58.264Z,94.53
2022-10-22T05:51:26.286Z,49.97
2022-10-22T05:53:55.595Z,90.05
2022-10-22T05:56:22.953Z,117.38
2022-10-22T05:58:50.736Z,183.05
2022-10-22T06:01:20.619Z,180.90
2022-10-22T06:03:48.611Z,100.80
2022-10-22T06:06:29.521Z,166.60
2022-10-22T06:09:00.908Z,142.77
2022-10-22T06:11:31.146Z,102.18
2022-10-22T06:14:01.436Z,80.05
2022-10-22T06:16:29.775Z,44.42
2022-10-22T06:18:58.937Z,33.78
2022-10-22T06:21:25.767Z,21.30
2022-10-22T06:23:52.909Z,27.70
2022-10-22T06:26:19.767Z,19.95
2022-10-22T06:28:46.802Z,21.35
2022-10-22T06:31:14.521Z,25.77
2022-10-22T06:33:44.580Z,24.65
2022-10-22T06:36:14.028Z,18.92
2022-10-22T06:38:41.356Z,27.17
2022-10-22T06:41:11.106Z,23.05
2022-10-22T06:43:38.364Z,22.38
2022-10-22T06:46:08.782Z,28.48
2022-10-22T06:48:37.989Z,27.38
2022-10-22T06:51:07.457Z,36.17
2022-10-22T06:53:35.170Z,108.00
2022-10-22T06:56:21.971Z,38.20
2022-10-22T06:58:50.744Z,19.67
2022-10-22T07:01:19.205Z,18.15
2022-10-22T07:03:46.541Z,16.30
2022-10-22T07:06:15.198Z,15.27
2022-10-22T07:08:42.714Z,17.75
2022-10-22T07:11:18.868Z,18.75
2022-10-22T07:13:46.641Z,21.33
2022-10-22T07:16:13.767Z,25.75
2022-10-22T07:18:43.154Z,17.25
2022-10-22T07:21:12.042Z,14.85
2022-10-22T07:23:39.899Z,17.58
2022-10-22T07:26:07.588Z,15.25
2022-10-22T07:28:36.667Z,13.48
2022-10-22T07:31:03.828Z,13.32
2022-10-22T07:33:30.969Z,16.67
2022-10-22T07:36:02.533Z,23.70
2022-10-22T07:38:29.772Z,14.05
2022-10-22T07:40:56.618Z,16.00
2022-10-22T07:43:24.513Z,16.48
2022-10-22T07:45:51.634Z,17.13
2022-10-22T07:48:18.761Z,16.27
2022-10-22T07:50:45.646Z,16.50
2022-10-22T07:53:12.777Z,15.23
2022-10-22T07:55:39.642Z,16.48
2022-10-22T07:58:06.723Z,18.40
2022-10-22T08:00:33.744Z,22.60
2022-10-22T08:03:01.205Z,19.73
2022-10-22T08:05:28.037Z,20.85
2022-10-22T08:07:55.140Z,18.35
2022-10-22T08:10:21.980Z,17.35
2022-10-22T08:12:49.386Z,17.10
2022-10-22T08:15:16.366Z,16.33
2022-10-22T08:17:44.254Z,17.23
2022-10-22T08:20:11.489Z,18.05
2022-10-22T08:22:38.559Z,18.35
2022-10-22T08:25:06.020Z,17.75
2022-10-22T08:27:33.395Z,19.38
2022-10-22T08:30:00.223Z,19.55
2022-10-22T08:34:59.351Z,20.33
2022-10-22T08:37:26.506Z,18.25
2022-10-22T08:39:53.458Z,18.20
2022-10-22T08:42:35.833Z,21.98
2022-10-22T08:45:13.696Z,15.23
2022-10-22T08:48:08.574Z,16.77
2022-10-22T08:50:45.046Z,19.10
2022-10-22T08:53:15.799Z,17.48
2022-10-22T08:55:42.893Z,16.67
2022-10-22T08:58:28.386Z,21.50
2022-10-22T09:00:59.517Z,20.08
2022-10-22T09:03:45.547Z,23.50
2022-10-22T09:06:33.038Z,20.30
2022-10-22T09:09:00.873Z,19.75
2022-10-22T09:11:33.763Z,19.58
2022-10-22T09:14:02.020Z,18.58
2022-10-22T09:16:50.579Z,17.60
2022-10-22T09:19:49.803Z,19.25
2022-10-22T09:22:31.626Z,21.25
2022-10-22T09:25:20.371Z,21.83
2022-10-22T09:27:48.305Z,18.42
2022-10-22T09:30:21.601Z,24.42
2022-10-22T09:32:55.371Z,19.15
2022-10-22T09:35:24.596Z,20.58
2022-10-22T09:37:55.691Z,27.35
2022-10-22T09:40:23.655Z,17.52
2022-10-22T09:42:50.537Z,18.33
2022-10-22T09:45:24.898Z,18.30
2022-10-22T09:48:12.848Z,19.02
2022-10-22T09:50:50.540Z,20.15
2022-10-22T09:53:22.164Z,23.67
2022-10-22T09:55:52.325Z,20.00
2022-10-22T09:58:20.039Z,18.48
2022-10-22T10:00:52.040Z,19.75
2022-10-22T10:03:22.282Z,24.65
2022-10-22T10:05:52.914Z,23.30
2022-10-22T10:08:19.890Z,19.98
2022-10-22T10:10:52.984Z,21.35
2022-10-22T10:13:28.745Z,19.80
2022-10-22T10:16:09.397Z,22.05
2022-10-22T10:18:54.508Z,21.98
2022-10-22T10:21:47.647Z,21.48
2022-10-22T10:24:35.677Z,20.63
2022-10-22T10:27:09.329Z,23.00
2022-10-22T10:29:49.102Z,20.38
2022-10-22T10:32:25.874Z,18.55
2022-10-22T10:35:01.580Z,22.65
2022-10-22T10:37:34.978Z,21.80
2022-10-22T10:40:19.789Z,22.25
2022-10-22T10:42:52.420Z,17.80
2022-10-22T10:45:30.730Z,21.63
2022-10-22T10:48:36.165Z,18.50
2022-10-22T10:51:05.503Z,22.45
2022-10-22T10:53:42.963Z,18.88
2022-10-22T10:56:19.046Z,22.05
2022-10-22T10:59:08.309Z,22.50
2022-10-22T11:01:37.826Z,24.77
2022-10-22T11:04:29.878Z,20.02
2022-10-22T11:07:10.864Z,21.33
2022-10-22T11:09:43.410Z,19.75
2022-10-22T11:12:16.224Z,21.13
2022-10-22T11:15:08.012Z,22.50
2022-10-22T11:17:46.473Z,21.23
2022-10-22T11:20:24.400Z,22.02
2022-10-22T11:23:18.868Z,21.80
2022-10-22T11:25:49.395Z,18.92
2022-10-22T11:28:37.584Z,22.30
2022-10-22T11:31:12.733Z,19.38
2022-10-22T11:33:46.452Z,23.40
2022-10-22T11:36:14.047Z,25.08
2022-10-22T11:38:40.996Z,25.65
2022-10-22T11:41:18.195Z,23.95
2022-10-22T11:44:23.659Z,22.60
2022-10-22T11:47:19.055Z,28.67
2022-10-22T11:50:00.252Z,22.33
2022-10-22T11:52:39.525Z,20.38
2022-10-22T11:55:55.712Z,22.08
2022-10-22T11:58:28.761Z,21.38
2022-10-22T12:00:57.932Z,22.65
2022-10-22T12:03:30.923Z,24.65
2022-10-22T12:06:12.932Z,23.60
2022-10-22T12:08:50.507Z,25.48
2022-10-22T12:11:35.562Z,21.95
2022-10-22T12:14:29.042Z,22.02
2022-10-22T12:17:08.959Z,21.38
2022-10-22T12:19:39.457Z,25.20
2022-10-22T12:22:12.137Z,28.27
2022-10-22T12:24:42.253Z,23.40
2022-10-22T12:27:39.825Z,25.30
2022-10-22T12:30:22.363Z,25.95
2022-10-22T12:32:52.084Z,25.75
2022-10-22T12:35:21.202Z,25.35
2022-10-22T12:37:52.175Z,22.08
2022-10-22T12:40:24.296Z,27.45
2022-10-22T12:42:54.034Z,25.85
2022-10-22T12:45:21.659Z,23.17
2022-10-22T12:47:50.775Z,23.65
2022-10-22T12:50:23.939Z,24.25
2022-10-22T12:52:50.914Z,21.50
2022-10-22T12:55:20.129Z,23.38
2022-10-22T12:57:48.706Z,24.20
2022-10-22T13:00:25.867Z,23.15
2022-10-22T13:02:53.767Z,21.23
2022-10-22T13:05:27.238Z,23.75
2022-10-22T13:08:03.164Z,24.60
2022-10-22T13:10:36.091Z,28.77
2022-10-22T13:13:04.236Z,34.63
2022-10-22T13:15:31.551Z,28.00
2022-10-22T13:18:22.678Z,34.70
2022-10-22T13:20:58.854Z,37.30
2022-10-22T13:23:28.127Z,33.20
2022-10-22T13:26:05.025Z,28.95
2022-10-22T13:28:32.428Z,33.75
2022-10-22T13:31:01.826Z,36.58
2022-10-22T13:33:34.971Z,37.20
2022-10-22T13:36:02.520Z,36.83
2022-10-22T13:38:29.948Z,36.13
2022-10-22T13:40:58.668Z,37.60
2022-10-22T13:43:25.707Z,39.03
2022-10-22T13:45:55.612Z,37.47
2022-10-22T13:48:24.465Z,42.28
2022-10-22T13:50:52.631Z,40.95
2022-10-22T13:53:22.921Z,41.03
2022-10-22T13:55:50.406Z,40.20
2022-10-22T13:58:19.543Z,60.17
2022-10-22T14:00:50.415Z,76.13
2022-10-22T14:03:20.225Z,80.05
2022-10-22T14:05:47.893Z,53.25
2022-10-22T14:08:18.016Z,44.92
2022-10-22T14:10:45.265Z,47.92
2022-10-22T14:13:13.429Z,40.70
2022-10-22T14:15:41.117Z,41.45
2022-10-22T14:18:11.430Z,39.20
2022-10-22T14:20:40.382Z,39.15
2022-10-22T14:25:52.730Z,39.88
2022-10-22T14:28:19.830Z,48.33
2022-10-22T14:30:47.472Z,42.85
2022-10-22T14:33:28.779Z,45.55
2022-10-22T14:35:59.987Z,44.58
2022-10-22T14:38:26.935Z,49.42
2022-10-22T14:40:54.334Z,79.63
2022-10-22T14:43:24.069Z,62.75
2022-10-22T14:45:51.792Z,79.43
2022-10-22T14:50:51.994Z,50.15
2022-10-22T14:53:18.925Z,54.25
2022-10-22T14:55:49.129Z,49.72
2022-10-22T14:58:16.558Z,52.08
2022-10-22T15:00:44.279Z,53.75
2022-10-22T15:03:11.672Z,55.55
2022-10-22T15:05:44.470Z,52.10
2022-10-22T15:08:12.715Z,57.60
2022-10-22T15:10:40.340Z,76.00
2022-10-22T15:13:07.398Z,50.65
2022-10-22T15:15:39.487Z,55.92
2022-10-22T15:18:07.412Z,55.95
2022-10-22T15:20:34.467Z,65.28
2022-10-22T15:23:01.349Z,59.60
2022-10-22T15:25:28.863Z,53.10
2022-10-22T15:28:00.741Z,86.85
2022-10-22T15:30:31.995Z,70.88
2022-10-22T15:32:58.823Z,72.53
2022-10-22T15:35:28.387Z,75.40
2022-10-22T15:37:55.540Z,76.53
2022-10-22T15:40:22.667Z,88.10
2022-10-22T15:42:49.547Z,78.50
2022-10-22T15:45:16.817Z,161.75
2022-10-22T15:47:48.071Z,71.85
2022-10-22T15:50:15.886Z,94.03
2022-10-22T15:52:42.967Z,135.23
2022-10-22T15:55:10.708Z,88.63
2022-10-22T15:57:38.757Z,80.30
2022-10-22T16:00:06.740Z,68.65
2022-10-22T16:02:40.101Z,70.22
2022-10-22T16:05:08.071Z,66.35
2022-10-22T16:07:34.955Z,86.82
2022-10-22T16:10:02.106Z,85.75
2022-10-22T16:12:29.110Z,76.45
2022-10-22T16:14:56.185Z,127.47
2022-10-22T16:17:23.597Z,189.48
2022-10-22T16:19:51.046Z,115.90
2022-10-22T16:22:17.854Z,98.53
2022-10-22T16:24:45.101Z,80.72
2022-10-22T16:27:11.946Z,71.78
2022-10-22T16:29:39.595Z,77.63
2022-10-22T16:32:06.701Z,80.95
2022-10-22T16:34:33.809Z,66.43
2022-10-22T16:37:00.833Z,70.03
2022-10-22T16:39:27.959Z,74.35
2022-10-22T16:41:54.940Z,64.22
2022-10-22T16:44:22.032Z,72.45
2022-10-22T16:46:48.884Z,68.63
2022-10-22T16:49:16.019Z,70.97
2022-10-22T16:51:42.948Z,65.15
2022-10-22T16:54:12.540Z,69.20
2022-10-22T16:56:40.698Z,74.55
2022-10-22T16:59:08.205Z,70.78
2022-10-22T17:01:40.345Z,64.22
2022-10-22T17:04:08.234Z,65.75
2022-10-22T17:06:35.142Z,71.13
2022-10-22T17:09:02.326Z,76.35
2022-10-22T17:11:36.308Z,75.53
2022-10-22T17:14:05.317Z,71.82
2022-10-22T17:16:32.129Z,67.32
2022-10-22T17:18:59.494Z,68.25
2022-10-22T17:21:26.395Z,76.97
2022-10-22T17:23:56.979Z,87.97
2022-10-22T17:26:26.469Z,81.13
2022-10-22T17:28:53.900Z,76.35
2022-10-22T17:31:22.180Z,70.80
2022-10-22T17:33:51.128Z,88.45
2022-10-22T17:36:19.471Z,83.65
2022-10-22T17:38:50.024Z,81.15
2022-10-22T17:41:19.417Z,73.85
2022-10-22T17:46:23.891Z,76.85
2022-10-22T17:48:53.223Z,88.70
2022-10-22T17:51:21.435Z,203.68
2022-10-22T17:53:51.911Z,89.93
2022-10-22T17:56:21.432Z,87.18
2022-10-22T17:58:49.041Z,96.68
2022-10-22T18:01:31.290Z,81.68
2022-10-22T18:04:01.023Z,110.93
2022-10-22T18:06:28.783Z,101.82
2022-10-22T18:08:56.559Z,104.55
2022-10-22T18:11:25.267Z,87.13
2022-10-22T18:13:56.214Z,98.32
2022-10-22T18:16:24.147Z,80.75
2022-10-22T18:18:54.081Z,79.13
2022-10-22T18:21:22.669Z,74.35
2022-10-22T18:23:50.241Z,80.13
2022-10-22T18:26:20.227Z,80.75
2022-10-22T18:28:50.126Z,78.75
2022-10-22T18:31:19.534Z,85.70
2022-10-22T18:33:47.582Z,87.70
2022-10-22T18:36:24.269Z,85.07
2022-10-22T18:38:53.100Z,85.38
2022-10-22T18:41:20.831Z,98.03
2022-10-22T18:43:55.805Z,89.95
2022-10-22T18:46:24.298Z,94.43
2022-10-22T18:48:56.248Z,90.88
2022-10-22T18:51:24.607Z,100.53
2022-10-22T18:54:04.737Z,89.05
2022-10-22T18:56:40.654Z,90.90
2022-10-22T18:59:14.395Z,96.22
2022-10-22T19:01:41.425Z,104.75
2022-10-22T19:04:08.595Z,124.20
2022-10-22T19:06:37.070Z,112.80
2022-10-22T19:09:05.337Z,149.52
2022-10-22T19:11:32.771Z,126.32
2022-10-22T19:14:04.162Z,115.03
2022-10-22T19:16:31.123Z,126.72
2022-10-22T19:19:03.255Z,117.47
2022-10-22T19:21:30.419Z,128.00
2022-10-22T19:23:58.861Z,119.45
2022-10-22T19:26:27.634Z,127.15
2022-10-22T19:28:55.606Z,122.00
2022-10-22T19:31:24.122Z,115.32
2022-10-22T19:33:52.049Z,128.95
2022-10-22T19:36:19.736Z,120.55
2022-10-22T19:38:49.126Z,133.90
2022-10-22T19:41:18.373Z,112.75
2022-10-22T19:43:48.387Z,124.20
2022-10-22T19:46:15.357Z,110.55
2022-10-22T19:48:42.496Z,130.45
2022-10-22T19:51:11.438Z,116.60
2022-10-22T19:53:38.882Z,126.85
2022-10-22T19:56:07.537Z,127.15
2022-10-22T19:58:35.608Z,122.40
2022-10-22T20:01:09.856Z,114.05
2022-10-22T20:03:37.685Z,117.43
2022-10-22T20:06:07.192Z,115.40
2022-10-22T20:08:37.872Z,109.53
2022-10-22T20:11:10.696Z,116.25
2022-10-22T20:16:10.183Z,115.20
2022-10-22T20:18:38.577Z,110.43
2022-10-22T20:21:06.567Z,115.22
2022-10-22T20:23:34.387Z,116.55
2022-10-22T20:26:01.353Z,111.20
2022-10-22T20:28:28.702Z,108.45
2022-10-22T20:30:55.587Z,118.88
2022-10-22T20:33:22.753Z,112.43
2022-10-22T20:36:03.472Z,115.25
2022-10-22T20:38:30.665Z,105.38
2022-10-22T20:41:05.868Z,124.03
2022-10-22T20:43:33.372Z,119.03
2022-10-22T20:46:00.366Z,117.78
2022-10-22T20:48:31.338Z,130.70
2022-10-22T20:50:59.484Z,146.90
2022-10-22T20:53:27.883Z,136.93
2022-10-22T20:55:57.261Z,133.43
2022-10-22T20:58:26.873Z,151.27
2022-10-22T21:00:54.860Z,153.45
2022-10-22T21:03:22.071Z,150.18
2022-10-22T21:05:49.299Z,152.05
2022-10-22T21:08:17.771Z,152.18
2022-10-22T21:10:46.499Z,157.90
2022-10-22T21:13:14.223Z,252.77
2022-10-22T21:15:41.448Z,254.95
2022-10-22T21:18:08.636Z,182.30
2022-10-22T21:20:35.524Z,178.70
2022-10-22T21:23:02.874Z,167.60
2022-10-22T21:25:29.747Z,157.63
2022-10-22T21:27:56.871Z,168.88
2022-10-22T21:30:23.837Z,161.70
2022-10-22T21:32:51.810Z,195.38
2022-10-22T21:35:18.698Z,184.40
2022-10-22T21:37:45.719Z,177.68
2022-10-22T21:40:12.772Z,181.75
2022-10-22T21:42:39.917Z,192.43
2022-10-22T21:45:12.128Z,196.15
2022-10-22T21:47:41.501Z,196.35
2022-10-22T21:50:08.955Z,195.70
2022-10-22T21:52:36.321Z,209.95
2022-10-22T21:55:03.217Z,190.02
2022-10-22T21:57:30.258Z,185.32
2022-10-22T21:59:57.168Z,195.20
2022-10-22T22:02:24.215Z,184.18
2022-10-22T22:04:54.863Z,182.27
2022-10-22T22:07:22.262Z,198.98
2022-10-22T22:09:50.329Z,180.45
2022-10-22T22:12:18.412Z,194.30
2022-10-22T22:14:45.255Z,192.50
2022-10-22T22:17:12.458Z,170.82
2022-10-22T22:19:39.486Z,170.93
2022-10-22T22:22:06.550Z,178.93
2022-10-22T22:24:33.379Z,185.95
2022-10-22T22:27:00.464Z,207.68
2022-10-22T22:29:27.349Z,185.32
2022-10-22T22:31:54.599Z,172.82
2022-10-22T22:34:21.435Z,190.57
2022-10-22T22:36:51.591Z,171.63
2022-10-22T22:39:21.712Z,174.45
2022-10-22T22:41:48.977Z,143.40
2022-10-22T22:44:16.256Z,168.75
2022-10-22T22:46:43.952Z,154.73
2022-10-22T22:49:12.398Z,184.48
2022-10-22T22:51:39.505Z,162.80
2022-10-22T22:54:06.399Z,164.60
2022-10-22T22:56:34.679Z,159.82
2022-10-22T22:59:02.183Z,151.18
2022-10-22T23:01:34.907Z,143.90
2022-10-22T23:04:13.160Z,140.85
2022-10-22T23:06:40.318Z,127.32
2022-10-22T23:09:09.262Z,124.93
2022-10-22T23:11:36.678Z,152.65
2022-10-22T23:14:05.501Z,124.28
2022-10-22T23:16:35.140Z,121.78
2022-10-22T23:19:02.663Z,136.68
2022-10-22T23:21:35.505Z,147.20
2022-10-22T23:24:05.650Z,125.63
2022-10-22T23:26:35.466Z,117.40
2022-10-22T23:29:11.527Z,126.45
2022-10-22T23:31:38.954Z,123.03
2022-10-22T23:34:06.700Z,109.15
2022-10-22T23:36:37.618Z,105.00
2022-10-22T23:39:06.224Z,106.97
2022-10-22T23:41:33.471Z,103.38
2022-10-22T23:44:00.723Z,97.47
2022-10-22T23:46:28.288Z,104.75
2022-10-22T23:48:55.300Z,101.10
2022-10-22T23:51:23.047Z,98.15
2022-10-22T23:53:58.032Z,102.63
2022-10-22T23:56:25.946Z,91.45
2022-10-22T23:58:53.479Z,108.70
